sensor_id;sensor_type;location;lat;lon;timestamp;P1;durP1;ratioP1;P2;durP2;ratioP2
16199;SDS011;8207;52.494;4.654;2023-04-01T00:02:26;24.93;;;7.50;;
16199;SDS011;8207;52.494;4.654;2023-04-01T00:04:53;42.57;;;10.20;;
16199;SDS011;8207;52.494;4.654;2023-04-01T00:07:20;28.43;;;10.40;;
16199;SDS011;8207;52.494;4.654;2023-04-01T00:09:48;34.80;;;10.60;;
16199;SDS011;8207;52.494;4.654;2023-04-01T00:12:15;26.13;;;8.73;;
16199;SDS011;8207;52.494;4.654;2023-04-01T00:14:42;17.67;;;6.50;;
16199;SDS011;8207;52.494;4.654;2023-04-01T00:17:09;20.03;;;6.70;;
16199;SDS011;8207;52.494;4.654;2023-04-01T00:19:36;18.03;;;6.07;;
16199;SDS011;8207;52.494;4.654;2023-04-01T00:22:03;20.50;;;8.00;;
16199;SDS011;8207;52.494;4.654;2023-04-01T00:24:31;27.50;;;8.70;;
16199;SDS011;8207;52.494;4.654;2023-04-01T00:26:59;33.87;;;10.83;;
16199;SDS011;8207;52.494;4.654;2023-04-01T00:29:26;41.53;;;11.43;;
16199;SDS011;8207;52.494;4.654;2023-04-01T00:31:55;31.77;;;10.60;;
16199;SDS011;8207;52.494;4.654;2023-04-01T00:34:22;38.03;;;11.63;;
16199;SDS011;8207;52.494;4.654;2023-04-01T00:36:50;37.90;;;12.60;;
16199;SDS011;8207;52.494;4.654;2023-04-01T00:39:19;31.57;;;12.13;;
16199;SDS011;8207;52.494;4.654;2023-04-01T00:41:46;40.03;;;11.80;;
16199;SDS011;8207;52.494;4.654;2023-04-01T00:44:17;36.47;;;10.97;;
16199;SDS011;8207;52.494;4.654;2023-04-01T00:46:45;35.03;;;10.70;;
16199;SDS011;8207;52.494;4.654;2023-04-01T00:49:13;28.53;;;10.33;;
16199;SDS011;8207;52.494;4.654;2023-04-01T00:51:41;31.60;;;10.57;;
16199;SDS011;8207;52.494;4.654;2023-04-01T00:54:09;43.13;;;11.80;;
16199;SDS011;8207;52.494;4.654;2023-04-01T00:56:37;40.57;;;12.00;;
16199;SDS011;8207;52.494;4.654;2023-04-01T00:59:10;30.13;;;9.80;;
16199;SDS011;8207;52.494;4.654;2023-04-01T01:01:42;34.30;;;11.20;;
16199;SDS011;8207;52.494;4.654;2023-04-01T01:04:24;33.27;;;10.50;;
16199;SDS011;8207;52.494;4.654;2023-04-01T01:06:56;33.40;;;9.40;;
16199;SDS011;8207;52.494;4.654;2023-04-01T01:09:38;27.90;;;8.17;;
16199;SDS011;8207;52.494;4.654;2023-04-01T01:12:13;21.90;;;8.77;;
16199;SDS011;8207;52.494;4.654;2023-04-01T01:14:55;25.40;;;7.37;;
16199;SDS011;8207;52.494;4.654;2023-04-01T01:17:36;21.70;;;6.80;;
16199;SDS011;8207;52.494;4.654;2023-04-01T01:20:20;17.53;;;5.93;;
16199;SDS011;8207;52.494;4.654;2023-04-01T01:26:36;10.77;;;4.27;;
16199;SDS011;8207;52.494;4.654;2023-04-01T01:29:11;7.07;;;3.63;;
16199;SDS011;8207;52.494;4.654;2023-04-01T01:32:11;8.13;;;3.73;;
16199;SDS011;8207;52.494;4.654;2023-04-01T01:34:50;7.87;;;3.03;;
16199;SDS011;8207;52.494;4.654;2023-04-01T01:37:25;6.07;;;3.33;;
16199;SDS011;8207;52.494;4.654;2023-04-01T01:39:56;6.00;;;3.27;;
16199;SDS011;8207;52.494;4.654;2023-04-01T01:42:26;6.40;;;3.83;;
16199;SDS011;8207;52.494;4.654;2023-04-01T01:44:56;7.67;;;3.77;;
16199;SDS011;8207;52.494;4.654;2023-04-01T01:47:24;8.77;;;4.83;;
16199;SDS011;8207;52.494;4.654;2023-04-01T01:49:52;10.00;;;5.73;;
16199;SDS011;8207;52.494;4.654;2023-04-01T01:52:21;8.73;;;5.80;;
16199;SDS011;8207;52.494;4.654;2023-04-01T01:54:50;11.67;;;6.40;;
16199;SDS011;8207;52.494;4.654;2023-04-01T01:57:19;16.43;;;7.37;;
16199;SDS011;8207;52.494;4.654;2023-04-01T01:59:49;14.27;;;7.43;;
16199;SDS011;8207;52.494;4.654;2023-04-01T02:02:20;11.80;;;7.30;;
16199;SDS011;8207;52.494;4.654;2023-04-01T02:04:48;12.57;;;7.53;;
16199;SDS011;8207;52.494;4.654;2023-04-01T02:07:18;9.53;;;6.00;;
16199;SDS011;8207;52.494;4.654;2023-04-01T02:09:51;9.93;;;6.43;;
16199;SDS011;8207;52.494;4.654;2023-04-01T02:12:18;8.87;;;6.40;;
16199;SDS011;8207;52.494;4.654;2023-04-01T02:14:49;8.07;;;5.57;;
16199;SDS011;8207;52.494;4.654;2023-04-01T02:17:19;8.87;;;6.30;;
16199;SDS011;8207;52.494;4.654;2023-04-01T02:19:50;7.77;;;6.57;;
16199;SDS011;8207;52.494;4.654;2023-04-01T02:22:20;8.47;;;6.80;;
16199;SDS011;8207;52.494;4.654;2023-04-01T02:24:52;9.10;;;6.40;;
16199;SDS011;8207;52.494;4.654;2023-04-01T02:27:23;8.60;;;6.83;;
16199;SDS011;8207;52.494;4.654;2023-04-01T02:29:51;11.20;;;7.13;;
16199;SDS011;8207;52.494;4.654;2023-04-01T02:32:18;9.87;;;7.40;;
16199;SDS011;8207;52.494;4.654;2023-04-01T02:34:46;10.60;;;7.33;;
16199;SDS011;8207;52.494;4.654;2023-04-01T02:37:14;10.83;;;8.53;;
16199;SDS011;8207;52.494;4.654;2023-04-01T02:39:42;9.27;;;7.30;;
16199;SDS011;8207;52.494;4.654;2023-04-01T02:42:10;11.47;;;8.50;;
16199;SDS011;8207;52.494;4.654;2023-04-01T02:44:37;11.87;;;8.67;;
16199;SDS011;8207;52.494;4.654;2023-04-01T02:47:04;10.63;;;8.17;;
16199;SDS011;8207;52.494;4.654;2023-04-01T02:49:31;11.33;;;8.20;;
16199;SDS011;8207;52.494;4.654;2023-04-01T02:51:58;10.60;;;8.43;;
16199;SDS011;8207;52.494;4.654;2023-04-01T02:54:25;11.70;;;9.03;;
16199;SDS011;8207;52.494;4.654;2023-04-01T02:56:52;13.53;;;10.33;;
16199;SDS011;8207;52.494;4.654;2023-04-01T02:59:20;16.17;;;11.17;;
16199;SDS011;8207;52.494;4.654;2023-04-01T03:01:47;18.13;;;11.67;;
16199;SDS011;8207;52.494;4.654;2023-04-01T03:04:14;14.23;;;11.17;;
16199;SDS011;8207;52.494;4.654;2023-04-01T03:06:41;16.70;;;10.87;;
16199;SDS011;8207;52.494;4.654;2023-04-01T03:09:08;17.40;;;11.00;;
16199;SDS011;8207;52.494;4.654;2023-04-01T03:11:35;19.10;;;12.57;;
16199;SDS011;8207;52.494;4.654;2023-04-01T03:14:02;21.57;;;13.00;;
16199;SDS011;8207;52.494;4.654;2023-04-01T03:16:30;17.77;;;12.53;;
16199;SDS011;8207;52.494;4.654;2023-04-01T03:18:57;20.10;;;13.23;;
16199;SDS011;8207;52.494;4.654;2023-04-01T03:21:27;19.77;;;13.60;;
16199;SDS011;8207;52.494;4.654;2023-04-01T03:23:54;19.57;;;12.93;;
16199;SDS011;8207;52.494;4.654;2023-04-01T03:26:21;18.73;;;12.73;;
16199;SDS011;8207;52.494;4.654;2023-04-01T03:28:48;19.70;;;12.40;;
16199;SDS011;8207;52.494;4.654;2023-04-01T03:31:15;16.43;;;10.77;;
16199;SDS011;8207;52.494;4.654;2023-04-01T03:33:43;17.40;;;10.93;;
16199;SDS011;8207;52.494;4.654;2023-04-01T03:36:10;20.67;;;11.83;;
16199;SDS011;8207;52.494;4.654;2023-04-01T03:38:38;25.73;;;12.70;;
16199;SDS011;8207;52.494;4.654;2023-04-01T03:41:05;27.20;;;12.70;;
16199;SDS011;8207;52.494;4.654;2023-04-01T03:43:32;22.10;;;13.63;;
16199;SDS011;8207;52.494;4.654;2023-04-01T03:45:59;22.40;;;12.27;;
16199;SDS011;8207;52.494;4.654;2023-04-01T03:48:26;21.20;;;12.50;;
16199;SDS011;8207;52.494;4.654;2023-04-01T03:50:55;25.13;;;13.00;;
16199;SDS011;8207;52.494;4.654;2023-04-01T03:53:21;23.23;;;12.77;;
16199;SDS011;8207;52.494;4.654;2023-04-01T03:55:48;27.20;;;13.40;;
16199;SDS011;8207;52.494;4.654;2023-04-01T03:58:16;23.27;;;13.53;;
16199;SDS011;8207;52.494;4.654;2023-04-01T04:00:43;19.50;;;12.13;;
16199;SDS011;8207;52.494;4.654;2023-04-01T04:03:10;31.20;;;12.87;;
16199;SDS011;8207;52.494;4.654;2023-04-01T04:05:37;24.83;;;12.10;;
16199;SDS011;8207;52.494;4.654;2023-04-01T04:08:13;27.67;;;13.37;;
16199;SDS011;8207;52.494;4.654;2023-04-01T04:10:40;21.67;;;12.60;;
16199;SDS011;8207;52.494;4.654;2023-04-01T04:13:06;24.90;;;11.37;;
16199;SDS011;8207;52.494;4.654;2023-04-01T04:15:33;21.37;;;10.33;;
16199;SDS011;8207;52.494;4.654;2023-04-01T04:18:00;20.33;;;11.10;;
16199;SDS011;8207;52.494;4.654;2023-04-01T04:20:27;24.03;;;11.37;;
16199;SDS011;8207;52.494;4.654;2023-04-01T04:22:54;20.70;;;12.00;;
16199;SDS011;8207;52.494;4.654;2023-04-01T04:25:22;20.87;;;11.57;;
16199;SDS011;8207;52.494;4.654;2023-04-01T04:27:49;18.27;;;10.50;;
16199;SDS011;8207;52.494;4.654;2023-04-01T04:30:16;25.17;;;11.20;;
16199;SDS011;8207;52.494;4.654;2023-04-01T04:32:43;27.47;;;11.30;;
16199;SDS011;8207;52.494;4.654;2023-04-01T04:35:10;26.47;;;10.80;;
16199;SDS011;8207;52.494;4.654;2023-04-01T04:37:37;22.00;;;10.53;;
16199;SDS011;8207;52.494;4.654;2023-04-01T04:40:04;25.93;;;9.63;;
16199;SDS011;8207;52.494;4.654;2023-04-01T04:42:33;22.00;;;11.13;;
16199;SDS011;8207;52.494;4.654;2023-04-01T04:45:00;22.13;;;10.93;;
16199;SDS011;8207;52.494;4.654;2023-04-01T04:47:28;20.80;;;10.33;;
16199;SDS011;8207;52.494;4.654;2023-04-01T04:49:55;20.77;;;11.30;;
16199;SDS011;8207;52.494;4.654;2023-04-01T04:52:21;27.13;;;11.57;;
16199;SDS011;8207;52.494;4.654;2023-04-01T04:54:48;24.53;;;12.90;;
16199;SDS011;8207;52.494;4.654;2023-04-01T04:57:15;24.00;;;11.93;;
16199;SDS011;8207;52.494;4.654;2023-04-01T04:59:43;26.23;;;11.93;;
16199;SDS011;8207;52.494;4.654;2023-04-01T05:02:11;23.13;;;11.30;;
16199;SDS011;8207;52.494;4.654;2023-04-01T05:04:38;20.57;;;11.20;;
16199;SDS011;8207;52.494;4.654;2023-04-01T05:07:04;31.30;;;11.30;;
16199;SDS011;8207;52.494;4.654;2023-04-01T05:09:31;27.20;;;11.33;;
16199;SDS011;8207;52.494;4.654;2023-04-01T05:11:58;24.50;;;10.70;;
16199;SDS011;8207;52.494;4.654;2023-04-01T05:14:25;23.43;;;11.10;;
16199;SDS011;8207;52.494;4.654;2023-04-01T05:16:54;25.33;;;11.27;;
16199;SDS011;8207;52.494;4.654;2023-04-01T05:19:21;21.57;;;10.47;;
16199;SDS011;8207;52.494;4.654;2023-04-01T05:21:48;26.20;;;11.60;;
16199;SDS011;8207;52.494;4.654;2023-04-01T05:24:15;29.80;;;12.80;;
16199;SDS011;8207;52.494;4.654;2023-04-01T05:26:42;25.43;;;10.63;;
16199;SDS011;8207;52.494;4.654;2023-04-01T05:29:09;26.37;;;11.83;;
16199;SDS011;8207;52.494;4.654;2023-04-01T05:31:36;26.07;;;13.27;;
16199;SDS011;8207;52.494;4.654;2023-04-01T05:34:05;26.87;;;12.30;;
16199;SDS011;8207;52.494;4.654;2023-04-01T05:36:31;26.07;;;12.80;;
16199;SDS011;8207;52.494;4.654;2023-04-01T05:38:59;31.70;;;13.47;;
16199;SDS011;8207;52.494;4.654;2023-04-01T05:41:26;27.53;;;12.03;;
16199;SDS011;8207;52.494;4.654;2023-04-01T05:43:53;32.57;;;13.20;;
16199;SDS011;8207;52.494;4.654;2023-04-01T05:46:20;30.23;;;13.37;;
16199;SDS011;8207;52.494;4.654;2023-04-01T05:48:47;30.43;;;13.53;;
16199;SDS011;8207;52.494;4.654;2023-04-01T05:51:15;32.83;;;13.57;;
16199;SDS011;8207;52.494;4.654;2023-04-01T05:53:42;26.63;;;12.67;;
16199;SDS011;8207;52.494;4.654;2023-04-01T05:56:09;30.83;;;12.90;;
16199;SDS011;8207;52.494;4.654;2023-04-01T05:58:36;28.00;;;12.70;;
16199;SDS011;8207;52.494;4.654;2023-04-01T06:01:03;35.73;;;13.47;;
16199;SDS011;8207;52.494;4.654;2023-04-01T06:03:32;28.10;;;13.67;;
16199;SDS011;8207;52.494;4.654;2023-04-01T06:06:02;34.30;;;13.90;;
16199;SDS011;8207;52.494;4.654;2023-04-01T06:08:31;33.57;;;15.97;;
16199;SDS011;8207;52.494;4.654;2023-04-01T06:11:01;36.43;;;14.50;;
16199;SDS011;8207;52.494;4.654;2023-04-01T06:13:43;37.13;;;15.47;;
16199;SDS011;8207;52.494;4.654;2023-04-01T06:16:25;35.63;;;16.23;;
16199;SDS011;8207;52.494;4.654;2023-04-01T06:19:04;30.97;;;14.63;;
16199;SDS011;8207;52.494;4.654;2023-04-01T06:28:05;32.97;;;14.03;;
16199;SDS011;8207;52.494;4.654;2023-04-01T06:30:47;38.20;;;14.70;;
16199;SDS011;8207;52.494;4.654;2023-04-01T06:33:29;35.73;;;15.10;;
16199;SDS011;8207;52.494;4.654;2023-04-01T06:36:32;34.97;;;13.90;;
16199;SDS011;8207;52.494;4.654;2023-04-01T06:39:18;36.97;;;15.00;;
16199;SDS011;8207;52.494;4.654;2023-04-01T06:42:01;32.00;;;13.93;;
16199;SDS011;8207;52.494;4.654;2023-04-01T06:44:48;34.43;;;14.33;;
16199;SDS011;8207;52.494;4.654;2023-04-01T06:47:27;34.97;;;14.60;;
16199;SDS011;8207;52.494;4.654;2023-04-01T06:50:04;30.37;;;13.67;;
16199;SDS011;8207;52.494;4.654;2023-04-01T06:52:40;32.17;;;13.43;;
16199;SDS011;8207;52.494;4.654;2023-04-01T06:55:17;34.90;;;13.13;;
16199;SDS011;8207;52.494;4.654;2023-04-01T06:57:54;23.27;;;11.60;;
16199;SDS011;8207;52.494;4.654;2023-04-01T07:00:27;29.40;;;13.07;;
16199;SDS011;8207;52.494;4.654;2023-04-01T07:02:59;31.57;;;13.93;;
16199;SDS011;8207;52.494;4.654;2023-04-01T07:05:32;30.50;;;13.23;;
16199;SDS011;8207;52.494;4.654;2023-04-01T07:08:01;32.37;;;15.67;;
16199;SDS011;8207;52.494;4.654;2023-04-01T07:10:33;32.43;;;14.10;;
16199;SDS011;8207;52.494;4.654;2023-04-01T07:13:07;33.73;;;13.47;;
16199;SDS011;8207;52.494;4.654;2023-04-01T07:15:40;30.03;;;14.13;;
16199;SDS011;8207;52.494;4.654;2023-04-01T07:18:11;34.17;;;13.87;;
16199;SDS011;8207;52.494;4.654;2023-04-01T07:20:42;28.77;;;12.10;;
16199;SDS011;8207;52.494;4.654;2023-04-01T07:23:10;27.40;;;12.63;;
16199;SDS011;8207;52.494;4.654;2023-04-01T07:25:47;26.60;;;11.13;;
16199;SDS011;8207;52.494;4.654;2023-04-01T07:28:19;23.13;;;11.03;;
16199;SDS011;8207;52.494;4.654;2023-04-01T07:30:51;21.77;;;10.90;;
16199;SDS011;8207;52.494;4.654;2023-04-01T07:33:29;21.20;;;10.13;;
16199;SDS011;8207;52.494;4.654;2023-04-01T07:36:06;16.03;;;9.53;;
16199;SDS011;8207;52.494;4.654;2023-04-01T07:38:41;26.87;;;11.20;;
16199;SDS011;8207;52.494;4.654;2023-04-01T07:41:16;24.40;;;12.13;;
16199;SDS011;8207;52.494;4.654;2023-04-01T07:43:53;31.10;;;13.30;;
16199;SDS011;8207;52.494;4.654;2023-04-01T07:46:33;22.37;;;12.30;;
16199;SDS011;8207;52.494;4.654;2023-04-01T07:49:29;27.43;;;12.33;;
16199;SDS011;8207;52.494;4.654;2023-04-01T07:52:00;25.13;;;12.13;;
16199;SDS011;8207;52.494;4.654;2023-04-01T07:54:34;22.60;;;11.23;;
16199;SDS011;8207;52.494;4.654;2023-04-01T07:57:08;18.87;;;10.17;;
16199;SDS011;8207;52.494;4.654;2023-04-01T07:59:45;23.80;;;9.63;;
16199;SDS011;8207;52.494;4.654;2023-04-01T08:02:26;19.13;;;9.57;;
16199;SDS011;8207;52.494;4.654;2023-04-01T08:05:04;15.67;;;9.00;;
16199;SDS011;8207;52.494;4.654;2023-04-01T08:07:43;12.87;;;8.07;;
16199;SDS011;8207;52.494;4.654;2023-04-01T08:10:16;13.70;;;7.17;;
16199;SDS011;8207;52.494;4.654;2023-04-01T08:12:49;11.50;;;6.57;;
16199;SDS011;8207;52.494;4.654;2023-04-01T08:15:27;12.30;;;7.00;;
16199;SDS011;8207;52.494;4.654;2023-04-01T08:18:05;12.53;;;6.00;;
16199;SDS011;8207;52.494;4.654;2023-04-01T08:20:39;11.00;;;5.77;;
16199;SDS011;8207;52.494;4.654;2023-04-01T08:23:11;11.80;;;5.80;;
16199;SDS011;8207;52.494;4.654;2023-04-01T08:25:43;9.83;;;5.03;;
16199;SDS011;8207;52.494;4.654;2023-04-01T08:28:16;7.83;;;5.13;;
16199;SDS011;8207;52.494;4.654;2023-04-01T08:30:50;5.83;;;3.67;;
16199;SDS011;8207;52.494;4.654;2023-04-01T08:33:22;9.30;;;4.37;;
16199;SDS011;8207;52.494;4.654;2023-04-01T08:35:52;9.90;;;4.57;;
16199;SDS011;8207;52.494;4.654;2023-04-01T08:38:23;7.13;;;4.27;;
16199;SDS011;8207;52.494;4.654;2023-04-01T08:40:56;8.13;;;4.80;;
16199;SDS011;8207;52.494;4.654;2023-04-01T08:43:42;8.43;;;5.70;;
16199;SDS011;8207;52.494;4.654;2023-04-01T08:46:28;10.43;;;6.87;;
16199;SDS011;8207;52.494;4.654;2023-04-01T08:49:17;11.43;;;7.17;;
16199;SDS011;8207;52.494;4.654;2023-04-01T08:52:18;12.83;;;8.30;;
16199;SDS011;8207;52.494;4.654;2023-04-01T08:55:00;13.30;;;7.57;;
16199;SDS011;8207;52.494;4.654;2023-04-01T08:57:49;12.00;;;7.30;;
16199;SDS011;8207;52.494;4.654;2023-04-01T09:00:37;15.43;;;8.30;;
16199;SDS011;8207;52.494;4.654;2023-04-01T09:03:21;14.90;;;7.97;;
16199;SDS011;8207;52.494;4.654;2023-04-01T09:09:07;16.10;;;8.20;;
16199;SDS011;8207;52.494;4.654;2023-04-01T09:11:57;14.30;;;8.23;;
16199;SDS011;8207;52.494;4.654;2023-04-01T09:15:02;13.87;;;7.80;;
16199;SDS011;8207;52.494;4.654;2023-04-01T09:21:19;14.70;;;8.03;;
16199;SDS011;8207;52.494;4.654;2023-04-01T09:23:57;14.83;;;8.43;;
16199;SDS011;8207;52.494;4.654;2023-04-01T09:26:42;13.47;;;7.60;;
16199;SDS011;8207;52.494;4.654;2023-04-01T09:29:24;12.83;;;7.30;;
16199;SDS011;8207;52.494;4.654;2023-04-01T09:32:19;14.47;;;7.63;;
16199;SDS011;8207;52.494;4.654;2023-04-01T09:35:21;16.20;;;8.50;;
16199;SDS011;8207;52.494;4.654;2023-04-01T09:37:53;13.47;;;7.50;;
16199;SDS011;8207;52.494;4.654;2023-04-01T09:40:34;12.87;;;7.87;;
16199;SDS011;8207;52.494;4.654;2023-04-01T09:43:16;9.80;;;7.37;;
16199;SDS011;8207;52.494;4.654;2023-04-01T09:45:52;11.40;;;6.63;;
16199;SDS011;8207;52.494;4.654;2023-04-01T09:51:39;10.40;;;6.37;;
16199;SDS011;8207;52.494;4.654;2023-04-01T09:54:21;8.47;;;5.80;;
16199;SDS011;8207;52.494;4.654;2023-04-01T10:06:21;13.17;;;7.37;;
16199;SDS011;8207;52.494;4.654;2023-04-01T10:12:33;12.57;;;7.83;;
16199;SDS011;8207;52.494;4.654;2023-04-01T10:27:41;12.40;;;8.60;;
16199;SDS011;8207;52.494;4.654;2023-04-01T10:33:49;11.93;;;9.17;;
16199;SDS011;8207;52.494;4.654;2023-04-01T10:36:44;15.53;;;9.00;;
16199;SDS011;8207;52.494;4.654;2023-04-01T10:42:45;13.30;;;8.57;;
16199;SDS011;8207;52.494;4.654;2023-04-01T10:54:47;17.07;;;8.60;;
16199;SDS011;8207;52.494;4.654;2023-04-01T11:00:33;12.30;;;7.10;;
16199;SDS011;8207;52.494;4.654;2023-04-01T11:07:04;10.47;;;7.30;;
16199;SDS011;8207;52.494;4.654;2023-04-01T11:10:09;11.90;;;7.43;;
16199;SDS011;8207;52.494;4.654;2023-04-01T11:28:06;7.80;;;5.77;;
16199;SDS011;8207;52.494;4.654;2023-04-01T11:30:53;10.30;;;6.20;;
16199;SDS011;8207;52.494;4.654;2023-04-01T11:33:42;7.50;;;6.20;;
16199;SDS011;8207;52.494;4.654;2023-04-01T11:36:25;7.20;;;5.50;;
16199;SDS011;8207;52.494;4.654;2023-04-01T11:39:08;7.70;;;5.23;;
16199;SDS011;8207;52.494;4.654;2023-04-01T11:41:49;10.47;;;6.33;;
16199;SDS011;8207;52.494;4.654;2023-04-01T11:44:21;9.87;;;5.80;;
16199;SDS011;8207;52.494;4.654;2023-04-01T11:47:02;12.13;;;7.87;;
16199;SDS011;8207;52.494;4.654;2023-04-01T11:49:45;12.90;;;8.03;;
16199;SDS011;8207;52.494;4.654;2023-04-01T11:52:21;27.67;;;9.37;;
16199;SDS011;8207;52.494;4.654;2023-04-01T11:55:02;13.93;;;7.17;;
16199;SDS011;8207;52.494;4.654;2023-04-01T11:57:46;10.63;;;7.57;;
16199;SDS011;8207;52.494;4.654;2023-04-01T12:00:35;13.90;;;7.53;;
16199;SDS011;8207;52.494;4.654;2023-04-01T12:03:17;15.77;;;7.67;;
16199;SDS011;8207;52.494;4.654;2023-04-01T12:06:00;10.17;;;5.73;;
16199;SDS011;8207;52.494;4.654;2023-04-01T12:08:33;9.97;;;5.83;;
16199;SDS011;8207;52.494;4.654;2023-04-01T12:11:12;9.27;;;5.83;;
16199;SDS011;8207;52.494;4.654;2023-04-01T12:13:49;6.73;;;5.40;;
16199;SDS011;8207;52.494;4.654;2023-04-01T12:16:25;9.63;;;6.10;;
16199;SDS011;8207;52.494;4.654;2023-04-01T12:19:04;9.70;;;5.17;;
16199;SDS011;8207;52.494;4.654;2023-04-01T12:21:43;6.37;;;5.00;;
16199;SDS011;8207;52.494;4.654;2023-04-01T12:24:42;7.97;;;4.67;;
16199;SDS011;8207;52.494;4.654;2023-04-01T12:27:15;8.50;;;4.47;;
16199;SDS011;8207;52.494;4.654;2023-04-01T12:29:59;7.30;;;4.73;;
16199;SDS011;8207;52.494;4.654;2023-04-01T12:32:39;6.60;;;4.27;;
16199;SDS011;8207;52.494;4.654;2023-04-01T12:35:15;8.60;;;4.70;;
16199;SDS011;8207;52.494;4.654;2023-04-01T12:37:52;7.17;;;5.03;;
16199;SDS011;8207;52.494;4.654;2023-04-01T12:40:40;9.27;;;5.57;;
16199;SDS011;8207;52.494;4.654;2023-04-01T12:43:26;8.30;;;5.17;;
16199;SDS011;8207;52.494;4.654;2023-04-01T12:46:11;10.20;;;4.97;;
16199;SDS011;8207;52.494;4.654;2023-04-01T12:51:45;8.80;;;5.10;;
16199;SDS011;8207;52.494;4.654;2023-04-01T12:57:36;8.83;;;5.37;;
16199;SDS011;8207;52.494;4.654;2023-04-01T13:00:35;11.33;;;5.60;;
16199;SDS011;8207;52.494;4.654;2023-04-01T13:03:17;10.77;;;4.63;;
16199;SDS011;8207;52.494;4.654;2023-04-01T13:09:01;11.10;;;4.97;;
16199;SDS011;8207;52.494;4.654;2023-04-01T13:11:45;11.60;;;5.30;;
16199;SDS011;8207;52.494;4.654;2023-04-01T13:14:30;11.77;;;5.50;;
16199;SDS011;8207;52.494;4.654;2023-04-01T13:17:19;9.17;;;5.30;;
16199;SDS011;8207;52.494;4.654;2023-04-01T13:19:49;8.60;;;5.47;;
16199;SDS011;8207;52.494;4.654;2023-04-01T13:22:22;8.27;;;5.80;;
16199;SDS011;8207;52.494;4.654;2023-04-01T13:24:58;7.83;;;5.47;;
16199;SDS011;8207;52.494;4.654;2023-04-01T13:27:33;10.47;;;6.13;;
16199;SDS011;8207;52.494;4.654;2023-04-01T13:30:16;10.33;;;6.20;;
16199;SDS011;8207;52.494;4.654;2023-04-01T13:32:53;11.70;;;5.93;;
16199;SDS011;8207;52.494;4.654;2023-04-01T13:35:30;8.73;;;5.70;;
16199;SDS011;8207;52.494;4.654;2023-04-01T13:40:58;11.57;;;6.03;;
16199;SDS011;8207;52.494;4.654;2023-04-01T13:43:34;9.37;;;7.23;;
16199;SDS011;8207;52.494;4.654;2023-04-01T13:49:07;6.37;;;4.93;;
16199;SDS011;8207;52.494;4.654;2023-04-01T13:52:07;9.20;;;6.50;;
16199;SDS011;8207;52.494;4.654;2023-04-01T13:58:04;8.17;;;5.20;;
16199;SDS011;8207;52.494;4.654;2023-04-01T14:00:52;11.77;;;6.37;;
16199;SDS011;8207;52.494;4.654;2023-04-01T14:03:42;7.40;;;5.27;;
16199;SDS011;8207;52.494;4.654;2023-04-01T14:06:20;8.13;;;5.43;;
16199;SDS011;8207;52.494;4.654;2023-04-01T14:09:04;7.77;;;5.53;;
16199;SDS011;8207;52.494;4.654;2023-04-01T14:11:43;6.90;;;4.33;;
16199;SDS011;8207;52.494;4.654;2023-04-01T14:14:18;5.80;;;5.07;;
16199;SDS011;8207;52.494;4.654;2023-04-01T14:19:48;6.77;;;5.00;;
16199;SDS011;8207;52.494;4.654;2023-04-01T14:22:25;5.70;;;4.83;;
16199;SDS011;8207;52.494;4.654;2023-04-01T14:25:20;6.77;;;5.57;;
16199;SDS011;8207;52.494;4.654;2023-04-01T14:28:03;8.83;;;5.20;;
16199;SDS011;8207;52.494;4.654;2023-04-01T14:30:41;6.27;;;4.80;;
16199;SDS011;8207;52.494;4.654;2023-04-01T14:33:23;10.03;;;4.97;;
16199;SDS011;8207;52.494;4.654;2023-04-01T14:36:18;7.17;;;5.17;;
16199;SDS011;8207;52.494;4.654;2023-04-01T14:39:07;8.47;;;4.87;;
16199;SDS011;8207;52.494;4.654;2023-04-01T14:41:46;7.97;;;4.87;;
16199;SDS011;8207;52.494;4.654;2023-04-01T14:44:18;6.47;;;4.90;;
16199;SDS011;8207;52.494;4.654;2023-04-01T14:50:06;7.03;;;5.67;;
16199;SDS011;8207;52.494;4.654;2023-04-01T14:52:38;7.23;;;5.87;;
16199;SDS011;8207;52.494;4.654;2023-04-01T14:55:17;8.07;;;5.33;;
16199;SDS011;8207;52.494;4.654;2023-04-01T14:57:57;7.10;;;5.90;;
16199;SDS011;8207;52.494;4.654;2023-04-01T15:00:41;8.33;;;5.50;;
16199;SDS011;8207;52.494;4.654;2023-04-01T15:03:15;6.17;;;4.83;;
16199;SDS011;8207;52.494;4.654;2023-04-01T15:05:51;7.73;;;4.80;;
16199;SDS011;8207;52.494;4.654;2023-04-01T15:08:22;6.30;;;4.70;;
16199;SDS011;8207;52.494;4.654;2023-04-01T15:10:53;5.57;;;4.70;;
16199;SDS011;8207;52.494;4.654;2023-04-01T15:16:53;6.47;;;4.87;;
16199;SDS011;8207;52.494;4.654;2023-04-01T15:19:30;6.37;;;4.27;;
16199;SDS011;8207;52.494;4.654;2023-04-01T15:22:19;7.67;;;4.47;;
16199;SDS011;8207;52.494;4.654;2023-04-01T15:25:00;7.10;;;4.87;;
16199;SDS011;8207;52.494;4.654;2023-04-01T15:27:40;6.17;;;3.63;;
16199;SDS011;8207;52.494;4.654;2023-04-01T15:30:20;5.53;;;3.87;;
16199;SDS011;8207;52.494;4.654;2023-04-01T15:33:01;6.33;;;4.07;;
16199;SDS011;8207;52.494;4.654;2023-04-01T15:35:43;5.37;;;3.77;;
16199;SDS011;8207;52.494;4.654;2023-04-01T15:38:20;4.10;;;3.70;;
16199;SDS011;8207;52.494;4.654;2023-04-01T15:40:57;7.43;;;4.20;;
16199;SDS011;8207;52.494;4.654;2023-04-01T15:43:35;5.47;;;3.50;;
16199;SDS011;8207;52.494;4.654;2023-04-01T15:49:27;8.73;;;3.90;;
16199;SDS011;8207;52.494;4.654;2023-04-01T15:52:03;4.13;;;3.27;;
16199;SDS011;8207;52.494;4.654;2023-04-01T15:57:40;5.13;;;3.67;;
16199;SDS011;8207;52.494;4.654;2023-04-01T16:00:22;5.93;;;3.73;;
16199;SDS011;8207;52.494;4.654;2023-04-01T16:03:13;3.40;;;3.10;;
16199;SDS011;8207;52.494;4.654;2023-04-01T16:05:51;6.10;;;4.07;;
16199;SDS011;8207;52.494;4.654;2023-04-01T16:11:27;4.20;;;3.80;;
16199;SDS011;8207;52.494;4.654;2023-04-01T16:14:07;5.47;;;3.70;;
16199;SDS011;8207;52.494;4.654;2023-04-01T16:16:44;4.63;;;4.10;;
16199;SDS011;8207;52.494;4.654;2023-04-01T16:19:27;3.93;;;3.53;;
16199;SDS011;8207;52.494;4.654;2023-04-01T16:22:06;6.33;;;4.13;;
16199;SDS011;8207;52.494;4.654;2023-04-01T16:24:39;5.77;;;4.20;;
16199;SDS011;8207;52.494;4.654;2023-04-01T16:27:14;5.23;;;3.67;;
16199;SDS011;8207;52.494;4.654;2023-04-01T16:29:51;5.90;;;4.33;;
16199;SDS011;8207;52.494;4.654;2023-04-01T16:32:26;4.63;;;3.60;;
16199;SDS011;8207;52.494;4.654;2023-04-01T16:35:05;4.60;;;4.13;;
16199;SDS011;8207;52.494;4.654;2023-04-01T16:37:47;3.83;;;3.40;;
16199;SDS011;8207;52.494;4.654;2023-04-01T16:40:22;8.20;;;4.27;;
16199;SDS011;8207;52.494;4.654;2023-04-01T16:42:55;6.43;;;3.70;;
16199;SDS011;8207;52.494;4.654;2023-04-01T16:45:33;6.37;;;3.47;;
16199;SDS011;8207;52.494;4.654;2023-04-01T16:48:06;4.43;;;3.37;;
16199;SDS011;8207;52.494;4.654;2023-04-01T16:50:39;3.30;;;3.00;;
16199;SDS011;8207;52.494;4.654;2023-04-01T16:53:16;6.93;;;3.77;;
16199;SDS011;8207;52.494;4.654;2023-04-01T16:55:49;5.03;;;3.70;;
16199;SDS011;8207;52.494;4.654;2023-04-01T16:58:20;4.23;;;3.43;;
16199;SDS011;8207;52.494;4.654;2023-04-01T17:00:52;3.97;;;3.07;;
16199;SDS011;8207;52.494;4.654;2023-04-01T17:03:26;6.17;;;3.27;;
16199;SDS011;8207;52.494;4.654;2023-04-01T17:06:01;5.93;;;3.13;;
16199;SDS011;8207;52.494;4.654;2023-04-01T17:08:43;4.57;;;2.53;;
16199;SDS011;8207;52.494;4.654;2023-04-01T17:11:37;4.23;;;2.87;;
16199;SDS011;8207;52.494;4.654;2023-04-01T17:14:14;4.67;;;3.50;;
16199;SDS011;8207;52.494;4.654;2023-04-01T17:16:54;3.97;;;2.87;;
16199;SDS011;8207;52.494;4.654;2023-04-01T17:19:32;3.60;;;2.80;;
16199;SDS011;8207;52.494;4.654;2023-04-01T17:22:13;3.30;;;2.90;;
16199;SDS011;8207;52.494;4.654;2023-04-01T17:24:56;4.67;;;2.73;;
16199;SDS011;8207;52.494;4.654;2023-04-01T17:27:35;4.70;;;2.90;;
16199;SDS011;8207;52.494;4.654;2023-04-01T17:30:15;2.83;;;2.60;;
16199;SDS011;8207;52.494;4.654;2023-04-01T17:32:51;4.77;;;2.33;;
16199;SDS011;8207;52.494;4.654;2023-04-01T17:35:29;6.23;;;3.30;;
16199;SDS011;8207;52.494;4.654;2023-04-01T17:38:03;5.30;;;2.70;;